createdAt,value
2019-01-30T00:00:32.938Z,10.07
2019-01-30T00:05:36.656Z,9.53
2019-01-30T00:10:40.112Z,8.97
2019-01-30T00:15:43.502Z,9.10
2019-01-30T00:20:47.238Z,9.53
2019-01-30T00:25:50.935Z,10.40
2019-01-30T00:30:54.663Z,9.20
2019-01-30T00:35:57.747Z,8.98
2019-01-30T00:41:01.488Z,8.90
2019-01-30T00:46:04.915Z,8.93
2019-01-30T00:51:08.374Z,8.40
2019-01-30T00:56:12.007Z,8.60
2019-01-30T01:01:15.762Z,8.93
2019-01-30T01:06:19.582Z,8.87
2019-01-30T01:11:23.302Z,8.57
2019-01-30T01:16:26.702Z,8.70
2019-01-30T01:21:30.154Z,8.50
2019-01-30T01:26:33.557Z,8.97
2019-01-30T01:31:36.621Z,8.80
2019-01-30T01:36:39.685Z,8.20
2019-01-30T01:41:42.759Z,8.70
2019-01-30T01:46:46.153Z,8.63
2019-01-30T01:51:49.502Z,8.50
2019-01-30T01:56:52.570Z,8.70
2019-01-30T02:01:55.968Z,8.13
2019-01-30T02:06:59.638Z,8.10
2019-01-30T02:12:03.037Z,8.20
2019-01-30T02:17:06.430Z,8.47
2019-01-30T02:22:10.091Z,8.07
2019-01-30T02:27:13.525Z,7.97
2019-01-30T02:32:16.926Z,8.17
2019-01-30T02:37:20.653Z,8.70
2019-01-30T02:42:23.965Z,8.50
2019-01-30T02:47:27.673Z,8.33
2019-01-30T02:52:31.402Z,8.90
2019-01-30T02:57:36.020Z,8.30
2019-01-30T03:02:39.664Z,8.98
2019-01-30T03:07:42.732Z,8.63
2019-01-30T03:12:46.255Z,8.20
2019-01-30T03:17:49.657Z,8.47
2019-01-30T03:22:52.726Z,8.03
2019-01-30T03:27:58.479Z,8.00
2019-01-30T03:33:01.546Z,7.97
2019-01-30T03:38:04.912Z,7.80
2019-01-30T03:43:08.725Z,7.43
2019-01-30T03:48:12.174Z,7.10
2019-01-30T03:53:15.874Z,7.62
2019-01-30T03:58:18.933Z,7.33
2019-01-30T04:03:22.412Z,7.63
2019-01-30T04:08:25.804Z,7.10
2019-01-30T04:13:29.195Z,7.93
2019-01-30T04:18:32.350Z,7.53
2019-01-30T04:23:36.045Z,7.80
2019-01-30T04:28:39.421Z,7.03
2019-01-30T04:33:43.172Z,8.10
2019-01-30T04:38:46.669Z,7.43
2019-01-30T04:43:50.071Z,7.83
2019-01-30T04:48:53.435Z,7.10
2019-01-30T04:53:57.137Z,7.90
2019-01-30T04:59:00.543Z,7.50
2019-01-30T05:04:03.991Z,7.50
2019-01-30T05:09:08.836Z,7.03
2019-01-30T05:14:11.924Z,7.57
2019-01-30T05:19:15.340Z,7.00
2019-01-30T05:24:18.835Z,7.20
2019-01-30T05:29:22.249Z,7.87
2019-01-30T05:34:25.411Z,7.67
2019-01-30T05:39:29.103Z,8.23
2019-01-30T05:44:32.532Z,7.50
2019-01-30T05:49:36.253Z,7.40
2019-01-30T05:54:39.677Z,7.67
2019-01-30T05:59:43.082Z,7.90
2019-01-30T06:04:46.815Z,7.90
2019-01-30T06:09:49.871Z,7.33
2019-01-30T06:14:53.620Z,7.93
2019-01-30T06:19:57.270Z,7.23
2019-01-30T06:25:00.350Z,8.00
2019-01-30T06:30:05.136Z,8.30
2019-01-30T06:35:08.683Z,8.50
2019-01-30T06:40:22.572Z,8.53
2019-01-30T06:45:26.313Z,8.80
2019-01-30T06:50:30.023Z,8.58
2019-01-30T06:55:33.437Z,8.27
2019-01-30T07:00:36.790Z,8.57
2019-01-30T07:05:40.181Z,9.27
2019-01-30T07:10:43.264Z,9.37
2019-01-30T07:15:47.002Z,9.17
2019-01-30T07:20:50.491Z,9.53
2019-01-30T07:25:53.898Z,9.60
2019-01-30T07:30:56.982Z,9.97
2019-01-30T07:36:00.111Z,9.50
2019-01-30T07:41:03.872Z,9.70
2019-01-30T07:46:06.954Z,10.17
2019-01-30T07:51:10.381Z,11.50
2019-01-30T07:56:13.809Z,10.47
2019-01-30T08:01:17.234Z,11.47
2019-01-30T08:06:20.557Z,12.03
2019-01-30T08:11:24.252Z,12.20
2019-01-30T08:16:27.668Z,12.23
2019-01-30T08:21:31.387Z,12.73
2019-01-30T08:26:34.835Z,12.77
2019-01-30T08:31:38.570Z,13.17
2019-01-30T08:36:41.987Z,12.60
2019-01-30T08:41:45.086Z,13.60
2019-01-30T08:46:48.768Z,12.50
2019-01-30T08:51:52.428Z,13.05
2019-01-30T08:56:56.114Z,13.17
2019-01-30T09:01:59.833Z,11.80
2019-01-30T09:07:03.553Z,12.58
2019-01-30T09:12:07.276Z,12.33
2019-01-30T09:17:10.727Z,11.83
2019-01-30T09:22:14.187Z,12.47
2019-01-30T09:27:17.646Z,13.03
2019-01-30T09:32:20.778Z,12.13
2019-01-30T09:37:24.476Z,11.73
2019-01-30T09:42:27.533Z,10.80
2019-01-30T09:47:31.284Z,11.50
2019-01-30T09:52:34.442Z,11.03
2019-01-30T09:57:37.867Z,12.30
2019-01-30T10:02:41.231Z,11.63
2019-01-30T10:07:44.575Z,11.67
2019-01-30T10:12:47.986Z,12.17
2019-01-30T10:17:51.400Z,11.43
2019-01-30T10:22:55.519Z,12.03
2019-01-30T10:27:58.937Z,12.97
2019-01-30T10:33:02.363Z,12.73
2019-01-30T10:38:06.358Z,13.57
2019-01-30T10:43:10.258Z,12.60
2019-01-30T10:48:13.943Z,12.43
2019-01-30T10:53:17.367Z,14.60
2019-01-30T10:58:20.526Z,13.70
2019-01-30T11:03:24.271Z,13.93
2019-01-30T11:08:27.589Z,14.40
2019-01-30T11:13:30.984Z,15.30
2019-01-30T11:18:34.798Z,14.40
2019-01-30T11:23:37.891Z,14.40
2019-01-30T11:28:41.310Z,14.37
2019-01-30T11:33:44.726Z,15.07
2019-01-30T11:38:48.143Z,15.47
2019-01-30T11:43:51.867Z,15.18
2019-01-30T11:48:56.445Z,14.47
2019-01-30T11:54:00.294Z,15.30
2019-01-30T11:59:03.780Z,14.43
2019-01-30T12:04:17.465Z,14.67
2019-01-30T12:09:12.939Z,15.63
2019-01-30T12:14:16.405Z,15.90
2019-01-30T12:19:19.814Z,15.87
2019-01-30T12:24:23.492Z,15.93
2019-01-30T12:29:26.590Z,15.53
2019-01-30T12:34:30.322Z,16.57
2019-01-30T12:39:34.399Z,16.20
2019-01-30T12:44:37.944Z,16.70
2019-01-30T12:49:41.700Z,16.50
2019-01-30T12:54:45.111Z,17.57
2019-01-30T12:59:48.833Z,17.75
2019-01-30T13:04:51.931Z,18.37
2019-01-30T13:09:55.042Z,17.80
2019-01-30T13:14:58.773Z,18.53
2019-01-30T13:20:02.487Z,18.60
2019-01-30T13:25:07.793Z,20.43
2019-01-30T13:30:12.426Z,16.13
2019-01-30T13:35:18.263Z,17.83
2019-01-30T13:40:34.831Z,17.87
2019-01-30T13:45:38.509Z,21.23
2019-01-30T13:50:41.602Z,19.83
2019-01-30T13:55:45.117Z,18.93
2019-01-30T14:00:48.195Z,21.43
2019-01-30T14:05:51.621Z,20.07
2019-01-30T14:10:55.055Z,20.50
2019-01-30T14:15:58.793Z,19.20
2019-01-30T14:21:02.290Z,19.57
2019-01-30T14:26:05.812Z,19.27
2019-01-30T14:31:09.262Z,18.93
2019-01-30T14:36:12.339Z,18.90
2019-01-30T14:41:15.794Z,19.23
2019-01-30T14:46:19.259Z,19.03
2019-01-30T14:51:22.509Z,20.80
2019-01-30T14:56:25.998Z,21.00
2019-01-30T15:01:29.727Z,20.83
2019-01-30T15:06:33.172Z,21.30
2019-01-30T15:11:36.725Z,21.00
2019-01-30T15:16:40.315Z,22.07
2019-01-30T15:21:43.899Z,20.83
2019-01-30T15:26:47.105Z,21.33
2019-01-30T15:31:50.831Z,22.40
2019-01-30T15:37:00.821Z,22.70
2019-01-30T15:42:04.327Z,22.30
2019-01-30T15:47:07.480Z,22.13
2019-01-30T15:52:10.957Z,22.33
2019-01-30T15:57:14.774Z,21.73
2019-01-30T16:02:17.903Z,23.33
2019-01-30T16:07:21.355Z,23.20
2019-01-30T16:12:24.819Z,25.70
2019-01-30T16:17:28.192Z,25.37
2019-01-30T16:22:31.326Z,24.67
2019-01-30T16:27:34.826Z,27.03
2019-01-30T16:32:38.587Z,30.63
2019-01-30T16:37:41.786Z,37.37
2019-01-30T16:42:45.835Z,36.53
2019-01-30T16:47:49.646Z,35.03
2019-01-30T16:52:53.156Z,36.42
2019-01-30T16:57:56.784Z,37.77
2019-01-30T17:03:01.616Z,37.97
2019-01-30T17:08:06.562Z,37.93
2019-01-30T17:13:12.698Z,38.80
2019-01-30T17:18:15.552Z,38.33
2019-01-30T17:23:19.475Z,36.80
2019-01-30T17:28:23.299Z,35.03
2019-01-30T17:33:26.486Z,36.50
2019-01-30T17:38:30.239Z,34.93
2019-01-30T17:43:33.703Z,35.93
2019-01-30T17:48:36.866Z,34.93
2019-01-30T17:53:40.374Z,32.23
2019-01-30T17:58:43.883Z,30.93
2019-01-30T18:03:47.714Z,31.00
2019-01-30T18:08:51.222Z,30.10
2019-01-30T18:13:54.775Z,29.47
2019-01-30T18:18:58.017Z,31.13
2019-01-30T18:24:01.525Z,30.73
2019-01-30T18:29:05.032Z,30.53
2019-01-30T18:34:11.636Z,30.90
2019-01-30T18:39:15.416Z,29.40
2019-01-30T18:44:18.912Z,29.83
2019-01-30T18:49:22.751Z,28.00
2019-01-30T18:54:26.416Z,28.83
2019-01-30T18:59:30.199Z,25.80
2019-01-30T19:04:33.624Z,24.37
2019-01-30T19:09:37.059Z,22.57
2019-01-30T19:14:40.511Z,25.20
2019-01-30T19:19:43.944Z,23.30
2019-01-30T19:24:47.395Z,20.88
2019-01-30T19:29:50.794Z,21.50
2019-01-30T19:34:54.207Z,18.67
2019-01-30T19:39:57.675Z,20.37
2019-01-30T19:45:00.795Z,19.13
2019-01-30T19:50:07.259Z,17.60
2019-01-30T19:55:11.956Z,18.80
2019-01-30T20:00:23.834Z,16.73
2019-01-30T20:05:27.295Z,16.10
2019-01-30T20:10:33.671Z,15.33
2019-01-30T20:15:37.694Z,14.40
2019-01-30T20:20:41.179Z,14.77
2019-01-30T20:25:44.770Z,13.30
2019-01-30T20:30:47.903Z,13.00
2019-01-30T20:35:51.664Z,13.37
2019-01-30T20:40:55.180Z,12.97
2019-01-30T20:45:58.666Z,12.03
2019-01-30T20:51:02.730Z,11.47
2019-01-30T20:56:06.218Z,11.33
2019-01-30T21:01:09.967Z,10.70
2019-01-30T21:06:13.428Z,10.43
2019-01-30T21:11:16.823Z,9.60
2019-01-30T21:16:20.619Z,9.63
2019-01-30T21:21:24.470Z,11.83
2019-01-30T21:26:27.870Z,12.27
2019-01-30T21:31:31.298Z,14.27
2019-01-30T21:36:34.730Z,12.77
2019-01-30T21:41:38.116Z,10.57
2019-01-30T21:46:41.546Z,11.53
2019-01-30T21:51:44.954Z,9.03
2019-01-30T21:56:48.390Z,8.60
2019-01-30T22:01:52.168Z,8.77
2019-01-30T22:06:55.892Z,8.67
2019-01-30T22:11:58.974Z,9.00
2019-01-30T22:17:02.090Z,7.77
2019-01-30T22:22:05.162Z,7.40
2019-01-30T22:27:08.527Z,7.10
2019-01-30T22:32:11.853Z,7.10
2019-01-30T22:37:15.570Z,7.07
2019-01-30T22:42:19.287Z,7.17
2019-01-30T22:47:23.006Z,7.17
2019-01-30T22:52:26.539Z,7.97
2019-01-30T22:57:30.353Z,6.87
2019-01-30T23:02:33.988Z,7.40
2019-01-30T23:07:40.775Z,6.30
2019-01-30T23:13:08.360Z,7.10
2019-01-30T23:18:14.851Z,6.87
2019-01-30T23:23:50.374Z,7.13
2019-01-30T23:29:05.542Z,6.63
2019-01-30T23:34:31.002Z,6.70
2019-01-30T23:39:40.594Z,6.10
2019-01-30T23:44:56.064Z,6.13
2019-01-30T23:50:22.406Z,6.17
2019-01-30T23:55:47.046Z,6.30
